Aérodrome :
LOGIN :

S'inscrire | Disclaimer

   EN    FR    IT 

 










Légende :    VFR   VFR Marginal   IFR   IFR Intensif   IFR Très Intensif
Visi : 
Plafond : 
>= 8 km
>= 3000ft
5 à 8 km
1000 à 3000 ft
1500m à 5 km
500 à 1000 ft
800 à 1500m
200 à 500 ft
< 800m
< 200 ft
Symboles :   Orages  Brouillard  Fortes neiges  Fortes précipitations  Vent > 20 kt
SIGMETs :   Divers  Orages  Givrage  Turbulence  Onde Orograph.  Cendres Volcan.







- Altitude de l'aérodrome : 171 ft
- Code IATA : EGC
- Voir les cartes d'approche


LFBE - Bergerac

DERNIER METAR :
  • 131630Z AUTO 19010KT 160V220 9999 SCT027 BKN038 OVC044 10/08 Q1013 TEMPO 3000 RA BKN005 OVC015 BECMG 21015G25KT

METARs EXPIRÉS :
  • 131600Z AUTO 18008KT 9999 -RA SCT037 BKN046 OVC052 10/08 Q1013 TEMPO 3000 RA BKN005 OVC015 BECMG 21015G25KT
  • 131530Z AUTO 19009KT 9999 -RA NSC 10/08 Q1013 TEMPO 3000 RA BKN005 OVC015 BECMG 21015G25KT
  • 131500Z AUTO 18008KT 9999 -RA FEW037 BKN046 OVC054 10/08 Q1014 TEMPO 3000 RA BKN005 OVC015 BECMG 21015G25KT
  • 131430Z AUTO 18008KT 150V210 9999 FEW030/// BKN054/// OVC068/// ///TCU 10/08 Q1014 TEMPO 3000 RA BKN005 OVC015 BECMG 21015G25KT
  • 131400Z AUTO 19009KT 9999 -RA FEW012 SCT027 OVC058 09/08 Q1014 TEMPO 3000 RA BKN005 OVC015 BECMG 21015G25KT

TAF TAF LFBE
Valide du 13 à 12h jusqu'au 14 à 12h UTC


131100Z 1312/1412 16010KT 9999 BKN020
TEMPO 1312/1322 3000 RA BKN005 OVC015
BECMG 1313/1315 21015G25KT
TEMPO 1322/1402 4500 -SHRA SCT008 BKN015TCU
BECMG 1400/1402 24012KT
Pas de NOTAMs connus pour ce terrain.
1 SIGMET publié pour la FIR Bordeaux (LFBB) :
 
Turbulence forte
LFBB SIGMET 1 VALID 131600/132000 LFPW
LFBB BORDEAUX FIR/UIR SEV TURB FCST WI N4445 W00145 - N4630 W00130 - N4630 W00015 - N4715 W00015 - N4715 E00200 - N4700 E00215 - N4545 E00130 - N4445 W00145 SFC/FL050 MOV E 40KT INTSF=



MET'MAP, la Météo Aéronautique d'un coup d'oeil ! - Copyright ORBIFLY Décembre 2007 - Disclaimer

ORBIFLY MET'MAP TEAM :

Programmation & Développement : Alexandra Zaïnal
Conception & Développement : Baudouin d'Aumeries
Co-Programmation & Développement : Marc-Olivier Méhu
Soutien technique & logistique : Manuel Goepfert

Contact : metmap@orbifly.com




SOURCES & CREDITS :

   NOAA